Terminal Aerodrome Forecast
Issued by NWS

Home | Current Version | Previous Version | Graphics & Text | Print | Product List | Glossary On
Versions: 1 2 3 4 5 6 7 8 9 10 11 12 13 14 15 16 17 18 19 20 21 22 23 24 25 26 27 28 29 30 31 32 33 34 35 36 37 38
000
FTUS43 KABR 160245 AAA
TAFATY
TAF AMD
KATY 160245Z 1603/1624 12009KT P6SM SCT013 OVC021
     FM160700 14008KT P6SM SHRA VCTS OVC010CB
     FM161000 VRB03KT 4SM SHRA BR OVC010
     FM161300 00000KT 6SM BR OVC025
     FM161800 33005KT P6SM -SHRA OVC015=

USA.gov is the U.S. government's official web portal to all federal, state and local government web resources and services.